createdAt,value
2023-05-09T00:01:19.962Z,17.90
2023-05-09T00:03:47.000Z,18.07
2023-05-09T00:06:13.564Z,17.33
2023-05-09T00:08:41.170Z,17.50
2023-05-09T00:11:07.704Z,17.67
2023-05-09T00:13:34.720Z,17.60
2023-05-09T00:16:01.321Z,16.87
2023-05-09T00:18:28.460Z,16.33
2023-05-09T00:20:54.901Z,18.03
2023-05-09T00:23:21.433Z,17.17
2023-05-09T00:25:48.002Z,17.53
2023-05-09T00:28:14.497Z,18.60
2023-05-09T00:30:40.973Z,17.60
2023-05-09T00:33:07.568Z,16.73
2023-05-09T00:35:34.811Z,17.40
2023-05-09T00:38:01.407Z,17.33
2023-05-09T00:40:27.871Z,16.83
2023-05-09T00:42:55.961Z,18.20
2023-05-09T00:45:22.425Z,17.33
2023-05-09T00:47:48.945Z,16.63
2023-05-09T00:50:16.139Z,17.87
2023-05-09T00:52:42.836Z,17.50
2023-05-09T00:55:10.455Z,17.10
2023-05-09T00:57:37.030Z,18.43
2023-05-09T01:00:04.510Z,17.83
2023-05-09T01:02:32.116Z,19.30
2023-05-09T01:04:58.938Z,17.50
2023-05-09T01:07:52.874Z,17.17
2023-05-09T01:10:34.510Z,17.87
2023-05-09T01:13:07.541Z,17.63
2023-05-09T01:15:39.601Z,16.60
2023-05-09T01:18:14.639Z,16.67
2023-05-09T01:21:01.779Z,16.90
2023-05-09T01:23:37.453Z,17.47
2023-05-09T01:26:08.455Z,16.40
2023-05-09T01:28:56.601Z,16.30
2023-05-09T01:31:24.642Z,16.50
2023-05-09T01:33:56.497Z,15.80
2023-05-09T01:36:30.143Z,16.53
2023-05-09T01:38:58.515Z,16.57
2023-05-09T01:41:29.720Z,15.77
2023-05-09T01:43:59.112Z,15.33
2023-05-09T01:46:27.125Z,15.60
2023-05-09T01:48:54.833Z,17.13
2023-05-09T01:51:21.726Z,17.63
2023-05-09T01:53:50.469Z,17.43
2023-05-09T01:56:17.873Z,17.60
2023-05-09T01:58:48.174Z,18.87
2023-05-09T02:01:15.975Z,20.13
2023-05-09T02:03:45.250Z,19.67
2023-05-09T02:06:12.679Z,21.13
2023-05-09T02:08:39.685Z,18.47
2023-05-09T02:11:07.380Z,17.37
2023-05-09T02:13:33.885Z,16.07
2023-05-09T02:16:01.304Z,15.80
2023-05-09T02:18:29.420Z,15.27
2023-05-09T02:20:55.936Z,16.60
2023-05-09T02:23:22.461Z,15.13
2023-05-09T02:25:49.752Z,17.20
2023-05-09T02:28:18.470Z,15.63
2023-05-09T02:30:46.512Z,15.83
2023-05-09T02:33:14.149Z,15.20
2023-05-09T02:35:44.100Z,15.70
2023-05-09T02:38:13.156Z,15.20
2023-05-09T02:40:42.216Z,14.90
2023-05-09T02:43:08.772Z,15.83
2023-05-09T02:45:35.310Z,15.80
2023-05-09T02:48:02.879Z,16.10
2023-05-09T02:50:29.633Z,16.00
2023-05-09T02:52:56.206Z,16.07
2023-05-09T02:55:22.805Z,16.47
2023-05-09T02:57:51.922Z,16.30
2023-05-09T03:00:28.155Z,16.57
2023-05-09T03:02:54.837Z,16.83
2023-05-09T03:05:21.537Z,16.57
2023-05-09T03:07:48.737Z,15.90
2023-05-09T03:10:15.421Z,16.80
2023-05-09T03:12:43.674Z,15.73
2023-05-09T03:15:10.817Z,16.07
2023-05-09T03:17:40.029Z,16.43
2023-05-09T03:20:07.906Z,16.17
2023-05-09T03:22:34.440Z,16.97
2023-05-09T03:25:03.614Z,16.70
2023-05-09T03:27:30.228Z,16.87
2023-05-09T03:29:56.761Z,15.67
2023-05-09T03:32:23.309Z,16.43
2023-05-09T03:34:49.822Z,15.53
2023-05-09T03:37:16.459Z,16.50
2023-05-09T03:39:43.728Z,16.30
2023-05-09T03:42:10.478Z,15.93
2023-05-09T03:44:36.913Z,16.60
2023-05-09T03:47:03.445Z,15.97
2023-05-09T03:49:36.335Z,16.07
2023-05-09T03:52:03.566Z,16.57
2023-05-09T03:54:30.603Z,16.33
2023-05-09T03:56:57.282Z,16.03
2023-05-09T03:59:24.116Z,17.10
2023-05-09T04:01:50.798Z,16.13
2023-05-09T04:04:18.078Z,16.00
2023-05-09T04:06:44.955Z,15.43
2023-05-09T04:09:11.971Z,14.13
2023-05-09T04:11:41.399Z,14.10
2023-05-09T04:14:11.083Z,13.93
2023-05-09T04:16:37.723Z,13.33
2023-05-09T04:19:04.444Z,14.17
2023-05-09T04:21:31.830Z,15.43
2023-05-09T04:24:00.672Z,14.17
2023-05-09T04:26:38.330Z,14.10
2023-05-09T04:29:07.657Z,14.43
2023-05-09T04:31:34.757Z,14.53
2023-05-09T04:34:01.892Z,14.40
2023-05-09T04:36:33.755Z,13.40
2023-05-09T04:39:00.769Z,14.00
2023-05-09T04:41:28.612Z,14.13
2023-05-09T04:43:55.771Z,16.33
2023-05-09T04:46:25.937Z,15.37
2023-05-09T04:48:53.308Z,16.03
2023-05-09T04:51:20.454Z,14.43
2023-05-09T04:53:47.012Z,14.97
2023-05-09T04:56:15.367Z,15.00
2023-05-09T04:58:43.564Z,15.97
2023-05-09T05:01:11.067Z,15.30
2023-05-09T05:03:38.718Z,15.53
2023-05-09T05:06:06.553Z,15.73
2023-05-09T05:08:35.303Z,16.10
2023-05-09T05:11:01.921Z,16.10
2023-05-09T05:13:28.448Z,16.20
2023-05-09T05:15:58.947Z,16.03
2023-05-09T05:18:25.842Z,16.07
2023-05-09T05:20:53.050Z,16.03
2023-05-09T05:23:20.247Z,14.87
2023-05-09T05:25:48.775Z,16.37
2023-05-09T05:28:15.511Z,18.23
2023-05-09T05:30:42.346Z,20.47
2023-05-09T05:33:08.881Z,20.93
2023-05-09T05:35:35.535Z,21.43
2023-05-09T05:38:02.197Z,21.00
2023-05-09T05:40:28.933Z,21.60
2023-05-09T05:42:56.549Z,23.47
2023-05-09T05:45:24.025Z,23.87
2023-05-09T05:47:54.410Z,22.90
2023-05-09T05:50:22.438Z,23.77
2023-05-09T05:52:49.314Z,25.37
2023-05-09T05:55:18.099Z,25.73
2023-05-09T05:57:46.861Z,25.37
2023-05-09T06:00:15.236Z,25.43
2023-05-09T06:02:48.912Z,25.77
2023-05-09T06:05:50.994Z,27.30
2023-05-09T06:08:17.854Z,29.50
2023-05-09T06:10:44.462Z,30.13
2023-05-09T06:13:11.041Z,26.87
2023-05-09T06:15:40.900Z,26.33
2023-05-09T06:18:08.758Z,24.07
2023-05-09T06:20:36.038Z,23.80
2023-05-09T06:23:02.556Z,24.10
2023-05-09T06:25:29.400Z,24.10
2023-05-09T06:27:55.927Z,24.00
2023-05-09T06:30:26.120Z,23.60
2023-05-09T06:32:53.726Z,24.73
2023-05-09T06:35:20.580Z,24.03
2023-05-09T06:38:01.663Z,23.77
2023-05-09T06:40:32.407Z,23.43
2023-05-09T06:42:58.858Z,23.50
2023-05-09T06:45:25.964Z,24.87
2023-05-09T06:47:52.526Z,24.10
2023-05-09T06:50:19.103Z,23.10
2023-05-09T06:52:45.612Z,21.40
2023-05-09T06:55:12.360Z,23.00
2023-05-09T06:57:40.543Z,22.77
2023-05-09T07:00:07.775Z,22.07
2023-05-09T07:02:34.325Z,22.63
2023-05-09T07:05:01.278Z,22.97
2023-05-09T07:07:27.920Z,22.30
2023-05-09T07:10:00.613Z,19.80
2023-05-09T07:12:34.158Z,11.83
2023-05-09T07:15:00.717Z,13.97
2023-05-09T07:17:27.348Z,17.10
2023-05-09T07:19:53.920Z,19.17
2023-05-09T07:22:20.408Z,19.77
2023-05-09T07:24:47.124Z,18.87
2023-05-09T07:27:13.941Z,18.03
2023-05-09T07:29:40.549Z,19.53
2023-05-09T07:32:07.128Z,18.93
2023-05-09T07:34:33.640Z,18.13
2023-05-09T07:37:00.288Z,17.67
2023-05-09T07:39:26.742Z,16.83
2023-05-09T07:41:53.232Z,17.13
2023-05-09T07:44:19.685Z,18.23
2023-05-09T07:46:46.120Z,15.43
2023-05-09T07:49:12.580Z,17.07
2023-05-09T07:51:39.020Z,15.77
2023-05-09T07:54:05.628Z,16.10
2023-05-09T07:56:32.146Z,15.40
2023-05-09T07:58:58.599Z,14.80
2023-05-09T08:01:25.159Z,12.50
2023-05-09T08:03:52.024Z,13.03
2023-05-09T08:06:18.544Z,13.20
2023-05-09T08:08:45.039Z,11.60
2023-05-09T08:11:11.508Z,11.93
2023-05-09T08:13:38.048Z,11.03
2023-05-09T08:16:04.875Z,9.00
2023-05-09T08:18:31.483Z,8.17
2023-05-09T08:20:59.551Z,8.47
2023-05-09T08:23:26.557Z,10.40
2023-05-09T08:25:54.461Z,10.13
2023-05-09T08:28:24.098Z,10.17
2023-05-09T08:30:51.912Z,9.50
2023-05-09T08:33:19.034Z,6.70
2023-05-09T08:35:46.204Z,5.57
2023-05-09T08:38:12.739Z,5.03
2023-05-09T08:40:41.192Z,4.93
2023-05-09T08:43:08.251Z,4.30
2023-05-09T08:45:49.372Z,4.33
2023-05-09T08:48:16.957Z,4.67
2023-05-09T08:50:44.332Z,4.07
2023-05-09T08:53:12.305Z,3.80
2023-05-09T08:55:39.124Z,4.03
2023-05-09T08:58:06.400Z,3.70
2023-05-09T09:00:33.977Z,3.40
2023-05-09T09:03:03.941Z,3.90
2023-05-09T09:05:41.359Z,3.37
2023-05-09T09:08:10.807Z,3.30
2023-05-09T09:10:41.927Z,3.47
2023-05-09T09:13:10.150Z,3.10
2023-05-09T09:15:38.542Z,3.60
2023-05-09T09:18:11.543Z,3.17
2023-05-09T09:20:45.717Z,2.87
2023-05-09T09:23:16.374Z,3.07
2023-05-09T09:25:46.165Z,3.23
2023-05-09T09:28:12.735Z,3.40
2023-05-09T09:30:47.893Z,3.07
2023-05-09T09:33:22.496Z,2.93
2023-05-09T09:35:50.984Z,3.00
2023-05-09T09:38:22.166Z,3.37
2023-05-09T09:40:52.051Z,3.60
2023-05-09T09:43:19.612Z,2.93
2023-05-09T09:45:50.628Z,3.20
2023-05-09T09:48:17.113Z,3.07
2023-05-09T09:50:43.594Z,3.20
2023-05-09T09:53:10.245Z,3.00
2023-05-09T09:55:36.930Z,3.27
2023-05-09T09:58:03.450Z,3.47
2023-05-09T10:00:32.042Z,3.30
2023-05-09T10:02:59.508Z,3.50
2023-05-09T10:05:28.583Z,3.40
2023-05-09T10:08:00.970Z,2.80
2023-05-09T10:10:29.581Z,2.80
2023-05-09T10:13:02.312Z,2.83
2023-05-09T10:15:41.431Z,2.83
2023-05-09T10:18:14.593Z,2.33
2023-05-09T10:20:43.606Z,2.67
2023-05-09T10:23:12.010Z,2.93
2023-05-09T10:25:44.535Z,2.87
2023-05-09T10:28:13.062Z,2.70
2023-05-09T10:31:08.759Z,3.13
2023-05-09T10:33:43.566Z,3.07
2023-05-09T10:36:11.118Z,3.20
2023-05-09T10:38:38.183Z,3.00
2023-05-09T10:41:05.447Z,3.23
2023-05-09T10:43:34.751Z,3.13
2023-05-09T10:46:05.075Z,3.27
2023-05-09T10:48:36.235Z,3.43
2023-05-09T10:51:03.819Z,6.60
2023-05-09T10:53:45.731Z,3.47
2023-05-09T10:56:32.526Z,14.87
2023-05-09T10:59:00.152Z,15.27
2023-05-09T11:01:38.951Z,17.50
2023-05-09T11:04:14.377Z,10.43
2023-05-09T11:06:52.020Z,8.10
2023-05-09T11:09:34.039Z,20.17
2023-05-09T11:12:09.198Z,9.50
2023-05-09T11:14:35.611Z,19.47
2023-05-09T11:17:04.194Z,13.67
2023-05-09T11:19:46.628Z,7.63
2023-05-09T11:22:15.021Z,6.53
2023-05-09T11:24:46.987Z,4.73
2023-05-09T11:27:19.035Z,5.37
2023-05-09T11:29:56.737Z,5.90
2023-05-09T11:32:30.801Z,2.57
2023-05-09T11:35:07.343Z,2.53
2023-05-09T11:37:33.877Z,2.70
2023-05-09T11:40:04.715Z,2.53
2023-05-09T11:42:31.894Z,1.97
2023-05-09T11:44:59.267Z,2.30
2023-05-09T11:47:26.485Z,2.70
2023-05-09T11:49:53.112Z,2.90
2023-05-09T11:52:20.869Z,2.10
2023-05-09T11:54:47.786Z,2.70
2023-05-09T11:57:17.458Z,2.90
2023-05-09T11:59:47.588Z,2.37
2023-05-09T12:02:14.416Z,2.70
2023-05-09T12:04:40.992Z,2.73
2023-05-09T12:07:07.570Z,2.30
2023-05-09T12:09:38.103Z,2.23
2023-05-09T12:12:14.308Z,2.37
2023-05-09T12:14:41.667Z,2.10
2023-05-09T12:17:08.325Z,3.83
2023-05-09T12:19:35.656Z,2.43
2023-05-09T12:22:03.819Z,2.20
2023-05-09T12:24:31.301Z,3.13
2023-05-09T12:26:59.417Z,2.30
2023-05-09T12:29:27.058Z,3.30
2023-05-09T12:31:54.475Z,2.80
2023-05-09T12:34:21.377Z,2.40
2023-05-09T12:36:51.632Z,2.27
2023-05-09T12:39:19.393Z,6.20
2023-05-09T12:41:53.895Z,2.43
2023-05-09T12:44:29.281Z,3.73
2023-05-09T12:47:01.388Z,2.30
2023-05-09T12:49:29.001Z,3.70
2023-05-09T12:51:57.549Z,2.87
2023-05-09T12:54:26.652Z,1.50
2023-05-09T12:56:56.602Z,2.03
2023-05-09T12:59:25.985Z,3.20
2023-05-09T13:01:54.977Z,2.70
2023-05-09T13:04:22.018Z,2.70
2023-05-09T13:06:53.787Z,2.33
2023-05-09T13:09:20.378Z,4.47
2023-05-09T13:11:47.694Z,4.70
2023-05-09T13:14:14.922Z,4.43
2023-05-09T13:16:41.413Z,3.60
2023-05-09T13:19:08.202Z,3.30
2023-05-09T13:21:35.431Z,4.23
2023-05-09T13:24:03.136Z,3.77
2023-05-09T13:26:29.742Z,3.07
2023-05-09T13:28:56.447Z,3.50
2023-05-09T13:31:23.232Z,4.20
2023-05-09T13:33:51.862Z,3.60
2023-05-09T13:36:19.150Z,3.50
2023-05-09T13:38:45.797Z,3.73
2023-05-09T13:41:13.726Z,3.70
2023-05-09T13:43:42.444Z,3.63
2023-05-09T13:46:09.041Z,3.77
2023-05-09T13:48:35.575Z,3.67
2023-05-09T13:51:03.642Z,3.30
2023-05-09T13:53:30.159Z,4.30
2023-05-09T13:55:57.122Z,3.53
2023-05-09T13:58:23.765Z,3.57
2023-05-09T14:00:50.473Z,3.87
2023-05-09T14:03:16.934Z,3.33
2023-05-09T14:05:43.482Z,4.20
2023-05-09T14:08:10.016Z,4.33
2023-05-09T14:10:36.714Z,4.10
2023-05-09T14:13:03.246Z,4.67
2023-05-09T14:15:29.920Z,5.20
2023-05-09T14:17:56.921Z,5.53
2023-05-09T14:20:23.477Z,5.10
2023-05-09T14:22:49.947Z,5.03
2023-05-09T14:25:16.904Z,4.00
2023-05-09T14:27:43.495Z,4.77
2023-05-09T14:30:10.470Z,5.00
2023-05-09T14:32:37.143Z,5.33
2023-05-09T14:35:04.030Z,5.03
2023-05-09T14:37:30.556Z,5.20
2023-05-09T14:39:57.048Z,5.57
2023-05-09T14:42:23.577Z,5.20
2023-05-09T14:44:50.294Z,6.50
2023-05-09T14:47:16.905Z,6.00
2023-05-09T14:49:43.378Z,4.60
2023-05-09T14:52:10.954Z,4.73
2023-05-09T14:54:37.463Z,4.97
2023-05-09T14:57:05.287Z,4.57
2023-05-09T14:59:32.132Z,3.37
2023-05-09T15:01:58.803Z,2.13
2023-05-09T15:04:28.278Z,2.50
2023-05-09T15:06:54.854Z,1.37
2023-05-09T15:09:22.462Z,2.10
2023-05-09T15:11:49.386Z,2.47
2023-05-09T15:14:16.574Z,1.70
2023-05-09T15:16:43.322Z,2.70
2023-05-09T15:19:10.018Z,2.80
2023-05-09T15:21:36.449Z,3.17
2023-05-09T15:24:03.460Z,3.20
2023-05-09T15:26:30.135Z,3.40
2023-05-09T15:28:56.575Z,3.47
2023-05-09T15:31:23.896Z,3.80
2023-05-09T15:33:50.758Z,3.53
2023-05-09T15:36:17.312Z,3.57
2023-05-09T15:38:48.150Z,5.07
2023-05-09T15:41:15.327Z,4.07
2023-05-09T15:43:42.037Z,3.93
2023-05-09T15:46:08.520Z,3.20
2023-05-09T15:48:34.980Z,4.07
2023-05-09T15:51:02.632Z,3.93
2023-05-09T15:53:29.353Z,3.97
2023-05-09T15:55:56.889Z,3.00
2023-05-09T15:58:23.505Z,3.83
2023-05-09T16:00:50.780Z,4.07
2023-05-09T16:03:18.175Z,3.97
2023-05-09T16:05:45.021Z,3.87
2023-05-09T16:08:11.973Z,3.50
2023-05-09T16:10:38.438Z,3.47
2023-05-09T16:13:04.974Z,2.80
2023-05-09T16:15:31.465Z,3.10
2023-05-09T16:17:57.870Z,3.27
2023-05-09T16:20:24.471Z,3.90
2023-05-09T16:22:50.916Z,4.27
2023-05-09T16:25:17.496Z,3.30
2023-05-09T16:27:44.182Z,3.70
2023-05-09T16:30:11.027Z,4.23
2023-05-09T16:32:38.104Z,4.00
2023-05-09T16:35:05.054Z,5.13
2023-05-09T16:37:33.453Z,5.20
2023-05-09T16:40:01.498Z,4.77
2023-05-09T16:42:28.424Z,5.67
2023-05-09T16:44:55.774Z,5.73
2023-05-09T16:47:22.210Z,5.67
2023-05-09T16:49:48.647Z,5.53
2023-05-09T16:52:15.356Z,5.60
2023-05-09T16:54:41.814Z,5.20
2023-05-09T16:57:08.375Z,6.13
2023-05-09T16:59:34.856Z,6.43
2023-05-09T17:02:02.106Z,6.93
2023-05-09T17:04:29.320Z,6.87
2023-05-09T17:06:55.921Z,5.67
2023-05-09T17:09:22.479Z,5.70
2023-05-09T17:11:48.952Z,5.47
2023-05-09T17:14:15.525Z,6.13
2023-05-09T17:16:42.030Z,6.77
2023-05-09T17:19:08.475Z,7.20
2023-05-09T17:21:35.295Z,7.10
2023-05-09T17:24:02.145Z,6.70
2023-05-09T17:26:29.565Z,6.10
2023-05-09T17:28:56.158Z,5.50
2023-05-09T17:31:22.777Z,5.63
2023-05-09T17:33:49.442Z,4.97
2023-05-09T17:36:15.924Z,6.40
2023-05-09T17:38:42.583Z,6.87
2023-05-09T17:41:09.114Z,9.57
2023-05-09T17:43:35.580Z,5.47
2023-05-09T17:46:02.184Z,3.80
2023-05-09T17:48:29.226Z,4.40
2023-05-09T17:50:56.217Z,4.50
2023-05-09T17:53:22.792Z,4.70
2023-05-09T17:55:50.525Z,4.80
2023-05-09T17:58:17.039Z,4.27
2023-05-09T18:00:44.552Z,4.53
2023-05-09T18:03:11.092Z,4.40
2023-05-09T18:05:37.986Z,4.70
2023-05-09T18:08:05.588Z,4.70
2023-05-09T18:10:32.207Z,4.80
2023-05-09T18:12:58.742Z,4.60
2023-05-09T18:15:26.176Z,4.97
2023-05-09T18:17:54.594Z,5.13
2023-05-09T18:20:21.116Z,4.60
2023-05-09T18:22:47.588Z,5.33
2023-05-09T18:25:14.257Z,5.10
2023-05-09T18:27:40.729Z,4.73
2023-05-09T18:30:07.848Z,3.87
2023-05-09T18:32:34.441Z,3.53
2023-05-09T18:35:00.940Z,3.37
2023-05-09T18:37:27.816Z,3.60
2023-05-09T18:39:54.267Z,3.53
2023-05-09T18:42:20.846Z,3.53
2023-05-09T18:44:47.322Z,2.90
2023-05-09T18:47:13.971Z,3.20
2023-05-09T18:49:41.200Z,3.33
2023-05-09T18:52:08.736Z,3.13
2023-05-09T18:54:38.222Z,2.97
2023-05-09T18:57:04.780Z,3.13
2023-05-09T18:59:31.794Z,3.00
2023-05-09T19:01:58.303Z,3.17
2023-05-09T19:04:25.282Z,2.70
2023-05-09T19:06:51.855Z,2.70
2023-05-09T19:09:18.840Z,2.60
2023-05-09T19:11:45.324Z,2.40
2023-05-09T19:14:11.847Z,2.80
2023-05-09T19:16:38.418Z,2.20
2023-05-09T19:19:04.914Z,2.40
2023-05-09T19:21:31.431Z,1.90
2023-05-09T19:23:57.882Z,2.20
2023-05-09T19:26:24.550Z,2.00
2023-05-09T19:28:51.040Z,2.10
2023-05-09T19:31:18.773Z,2.50
2023-05-09T19:33:47.484Z,2.27
2023-05-09T19:36:14.170Z,2.60
2023-05-09T19:38:40.647Z,1.97
2023-05-09T19:41:07.119Z,2.30
2023-05-09T19:43:33.628Z,2.10
2023-05-09T19:46:00.209Z,2.40
2023-05-09T19:48:26.791Z,2.40
2023-05-09T19:50:57.776Z,2.97
2023-05-09T19:53:25.288Z,2.67
2023-05-09T19:55:52.181Z,2.70
2023-05-09T19:58:18.754Z,2.83
2023-05-09T20:00:45.627Z,2.63
2023-05-09T20:03:12.317Z,2.60
2023-05-09T20:05:38.904Z,2.80
2023-05-09T20:08:05.472Z,2.87
2023-05-09T20:10:32.966Z,2.97
2023-05-09T20:13:00.873Z,3.13
2023-05-09T20:15:27.826Z,2.90
2023-05-09T20:17:54.441Z,3.17
2023-05-09T20:20:21.268Z,2.37
2023-05-09T20:22:47.721Z,2.67
2023-05-09T20:25:14.756Z,2.30
2023-05-09T20:27:41.284Z,1.80
2023-05-09T20:30:08.321Z,1.50
2023-05-09T20:32:35.084Z,1.87
2023-05-09T20:35:01.987Z,2.30
2023-05-09T20:37:28.458Z,2.10
2023-05-09T20:39:54.929Z,2.07
2023-05-09T20:42:23.181Z,1.53
2023-05-09T20:44:51.471Z,1.33
2023-05-09T20:47:18.037Z,1.63
2023-05-09T20:49:44.628Z,1.50
2023-05-09T20:52:11.139Z,1.40
2023-05-09T20:54:37.691Z,0.90
2023-05-09T20:57:07.609Z,1.10
2023-05-09T20:59:34.274Z,1.00
2023-05-09T21:02:00.807Z,0.80
2023-05-09T21:04:27.477Z,0.80
2023-05-09T21:06:54.052Z,0.90
2023-05-09T21:09:20.594Z,0.80
2023-05-09T21:11:47.140Z,0.83
2023-05-09T21:14:13.688Z,0.90
2023-05-09T21:16:40.257Z,0.90
2023-05-09T21:19:06.867Z,0.80
2023-05-09T21:21:33.366Z,1.00
2023-05-09T21:24:03.108Z,0.90
2023-05-09T21:26:30.321Z,1.00
2023-05-09T21:28:56.763Z,0.90
2023-05-09T21:31:23.325Z,0.90
2023-05-09T21:33:49.913Z,0.80
2023-05-09T21:36:16.410Z,1.13
2023-05-09T21:38:42.959Z,1.07
2023-05-09T21:41:10.163Z,1.13
2023-05-09T21:43:37.474Z,1.23
2023-05-09T21:46:05.176Z,1.03
2023-05-09T21:48:31.817Z,1.40
2023-05-09T21:51:01.840Z,1.27
2023-05-09T21:53:28.388Z,1.30
2023-05-09T21:55:54.805Z,1.60
2023-05-09T21:58:21.258Z,1.30
2023-05-09T22:00:47.729Z,1.40
2023-05-09T22:03:14.322Z,1.83
2023-05-09T22:05:41.275Z,1.90
2023-05-09T22:08:07.824Z,2.07
2023-05-09T22:10:34.390Z,2.43
2023-05-09T22:13:01.066Z,2.37
2023-05-09T22:15:27.851Z,2.80
2023-05-09T22:17:54.398Z,2.60
2023-05-09T22:20:21.151Z,2.80
2023-05-09T22:22:47.642Z,2.60
2023-05-09T22:25:14.228Z,3.30
2023-05-09T22:27:40.698Z,2.77
2023-05-09T22:30:09.178Z,3.17
2023-05-09T22:32:35.801Z,3.07
2023-05-09T22:35:02.331Z,3.27
2023-05-09T22:37:28.814Z,3.13
2023-05-09T22:39:55.688Z,4.10
2023-05-09T22:42:22.226Z,3.77
2023-05-09T22:44:49.763Z,3.97
2023-05-09T22:47:16.351Z,4.00
2023-05-09T22:49:45.116Z,4.03
2023-05-09T22:52:12.545Z,4.30
2023-05-09T22:54:39.047Z,4.53
2023-05-09T22:57:05.562Z,4.20
2023-05-09T22:59:32.113Z,4.57
2023-05-09T23:01:59.425Z,4.20
2023-05-09T23:04:26.028Z,4.27
2023-05-09T23:06:52.520Z,4.90
2023-05-09T23:09:19.036Z,4.40
2023-05-09T23:11:45.526Z,4.50
2023-05-09T23:14:12.276Z,4.37
2023-05-09T23:16:38.744Z,4.60
2023-05-09T23:19:05.310Z,4.73
2023-05-09T23:21:32.586Z,5.00
2023-05-09T23:23:59.325Z,4.77
2023-05-09T23:26:25.776Z,5.03
2023-05-09T23:28:55.037Z,4.97
2023-05-09T23:31:21.713Z,5.00
2023-05-09T23:33:48.309Z,4.70
2023-05-09T23:36:15.291Z,4.43
2023-05-09T23:38:41.917Z,4.10
2023-05-09T23:41:08.404Z,4.70
2023-05-09T23:43:34.866Z,4.23
2023-05-09T23:46:01.867Z,4.30
2023-05-09T23:48:28.364Z,3.60
2023-05-09T23:50:54.798Z,3.93
2023-05-09T23:53:21.348Z,3.57
2023-05-09T23:55:47.813Z,3.43
2023-05-09T23:58:14.429Z,3.63
